Welcome to Northern Hawkes Bay. New Zealand.
PWS Header
      nz Flag



Hit Counter


W3C Valid W3C Valid logo


    Wairoa

Select any of the Stations below to visit their websites.










Historic Data from Weather Underground
Select the location of interest below. Wairoa is the default. Please have patience, this Data is slow to load in.
Northern Hawkes Bay Historical Data
Daily Summary for June 18, 2017 Units:  English    Metric   Both
« Previous Day
Next Day »
Daily Weekly Monthly Yearly Custom
  High: Low: Average:
Temperature: 65.7 °F 44.6 °F 52 °F
Dew Point: 53.4 °F 43.9 °F 47.7 °F
Humidity: 99% 59% 87%
Wind Speed: 7.6mph 0mph 3.1mph
Wind Gust: 12.1mph - -
Wind- - WSW
Pressure: 30.5 in 30.4 in -
Precipitation: 0 in    
Historical Graphs
 
 
Tabular Data for June 18, 2017
Time Temperature Dew Point Pressure Wind Wind Speed Wind Gust Humidity Rainfall Rate (Hourly) solar
00:00 46.8 °F 46.6 °F 30.5 in NNW 3.1 mph 4.5 mph 99% 0 in 0 W/m2
00:05 46.8 °F 46.6 °F 30.4 in North 2.2 mph 5.4 mph 99% 0 in 0 W/m2
00:10 46.9 °F 46.8 °F 30.4 in North 2.2 mph 5.4 mph 99% 0 in 0 W/m2
00:15 46.9 °F 46.8 °F 30.4 in North 1.6 mph 4.5 mph 99% 0 in 0 W/m2
00:20 46.9 °F 46.8 °F 30.4 in NNW 0.7 mph 4.5 mph 99% 0 in 0 W/m2
00:25 46.9 °F 46.8 °F 30.4 in North 0.7 mph 2.2 mph 99% 0 in 0 W/m2
00:30 46.9 °F 46.8 °F 30.4 in NNW 3.1 mph 3.8 mph 99% 0 in 0 W/m2
00:35 46.8 °F 46.6 °F 30.4 in NNW 3.1 mph 4.5 mph 99% 0 in 0 W/m2
00:40 46.9 °F 46.8 °F 30.4 in NNW 2.2 mph 4.5 mph 99% 0 in 0 W/m2
00:45 47.1 °F 46.9 °F 30.4 in NNW 3.8 mph 6 mph 99% 0 in 0 W/m2
00:50 46.9 °F 46.8 °F 30.4 in NNW 0.7 mph 6 mph 99% 0 in 0 W/m2
00:55 46.9 °F 46.8 °F 30.4 in North 0.7 mph 6 mph 99% 0 in 0 W/m2
01:00 46.9 °F 46.8 °F 30.4 in North 3.1 mph 4.5 mph 99% 0 in 0 W/m2
01:05 46.9 °F 46.8 °F 30.4 in North 1.6 mph 4.5 mph 99% 0 in 0 W/m2
01:10 47.1 °F 46.9 °F 30.4 in NNW 2.2 mph 4.5 mph 99% 0 in 0 W/m2
01:15 47.1 °F 46.9 °F 30.4 in NNW 3.1 mph 5.4 mph 99% 0 in 0 W/m2
01:20 46.9 °F 46.8 °F 30.4 in NNW 3.1 mph 5.4 mph 99% 0 in 0 W/m2
01:25 46.9 °F 46.8 °F 30.4 in NW 3.8 mph 5.4 mph 99% 0 in 0 W/m2
01:30 46.8 °F 46.6 °F 30.4 in NNW 4.5 mph 7.6 mph 99% 0 in 0 W/m2
01:35 46.8 °F 46.6 °F 30.4 in NNW 4.5 mph 7.6 mph 99% 0 in 0 W/m2
01:40 46.8 °F 46.6 °F 30.4 in NNW 3.8 mph 6 mph 99% 0 in 0 W/m2
01:45 46.8 °F 46.6 °F 30.4 in NNW 3.1 mph 6 mph 99% 0 in 0 W/m2
01:50 46.9 °F 46.8 °F 30.4 in NNW 1.6 mph 5.4 mph 99% 0 in 0 W/m2
01:55 46.9 °F 46.8 °F 30.4 in North 1.6 mph 4.5 mph 99% 0 in 0 W/m2
01:57 46.9 °F 46.8 °F 30.4 in North 2.2 mph 4.5 mph 99% 0 in 0 W/m2
02:02 46.8 °F 46.6 °F 30.4 in NNW 1.6 mph 3.8 mph 99% 0 in 0 W/m2
02:07 46.8 °F 46.6 °F 30.4 in NNW 3.1 mph 3.8 mph 99% 0 in 0 W/m2
02:12 46.6 °F 46.2 °F 30.4 in NNW 2.2 mph 3.8 mph 99% 0 in 0 W/m2
02:17 46.6 °F 46.2 °F 30.4 in NNW 1.6 mph 3.8 mph 99% 0 in 0 W/m2
02:22 46.6 °F 46.2 °F 30.4 in NNW 1.6 mph 3.8 mph 99% 0 in 0 W/m2
02:27 46.8 °F 46.6 °F 30.4 in NNE 2.2 mph 3.8 mph 99% 0 in 0 W/m2
02:32 46.8 °F 46.6 °F 30.4 in North 1.6 mph 3.8 mph 99% 0 in 0 W/m2
02:37 46.8 °F 46.6 °F 30.4 in NNW 2.2 mph 3.8 mph 99% 0 in 0 W/m2
02:42 46.6 °F 46.2 °F 30.4 in NW 3.8 mph 5.4 mph 99% 0 in 0 W/m2
02:47 46.6 °F 46.2 °F 30.4 in NNW 3.1 mph 5.4 mph 99% 0 in 0 W/m2
02:52 46.6 °F 46.2 °F 30.4 in NNW 3.8 mph 5.4 mph 99% 0 in 0 W/m2
02:57 46.4 °F 46 °F 30.4 in NNW 3.8 mph 5.4 mph 99% 0 in 0 W/m2
03:02 46.2 °F 45.3 °F 30.4 in NNW 3.8 mph 5.4 mph 97% 0 in 0 W/m2
03:07 46.2 °F 45.3 °F 30.4 in NNW 3.1 mph 6.9 mph 97% 0 in 0 W/m2
03:12 46 °F 45.1 °F 30.4 in NNW 1.6 mph 6.9 mph 97% 0 in 0 W/m2
03:17 46 °F 45.1 °F 30.4 in NNW 2.2 mph 5.4 mph 97% 0 in 0 W/m2
03:22 45.9 °F 45.1 °F 30.4 in North 3.1 mph 4.5 mph 97% 0 in 0 W/m2
03:27 45.9 °F 45.1 °F 30.4 in NNE 2.2 mph 4.5 mph 97% 0 in 0 W/m2
03:32 45.7 °F 45 °F 30.4 in North 2.2 mph 4.5 mph 97% 0 in 0 W/m2
03:37 45.5 °F 44.8 °F 30.4 in NNW 1.6 mph 3.1 mph 97% 0 in 0 W/m2
03:42 45.3 °F 44.4 °F 30.4 in NNW 2.2 mph 3.1 mph 97% 0 in 0 W/m2
03:47 45.1 °F 44.2 °F 30.4 in North 1.6 mph 3.8 mph 97% 0 in 0 W/m2
03:52 44.8 °F 44.1 °F 30.4 in NNW 1.6 mph 3.8 mph 97% 0 in 0 W/m2
03:57 44.8 °F 44.1 °F 30.4 in NNW 1.6 mph 3.8 mph 97% 0 in 0 W/m2
04:02 45 °F 44.2 °F 30.4 in NNW 2.2 mph 3.8 mph 97% 0 in 0 W/m2
04:07 45 °F 44.2 °F 30.4 in NNW 0.7 mph 3.8 mph 97% 0 in 0 W/m2
04:12 45 °F 44.2 °F 30.4 in NNW 1.6 mph 3.8 mph 97% 0 in 0 W/m2
04:17 45 °F 44.2 °F 30.4 in NW 1.6 mph 3.1 mph 97% 0 in 0 W/m2
04:22 45 °F 44.2 °F 30.4 in NW 1.6 mph 3.1 mph 97% 0 in 0 W/m2
04:27 45 °F 44.2 °F 30.4 in NW 1.6 mph 3.1 mph 97% 0 in 0 W/m2
04:32 45 °F 44.2 °F 30.4 in NW 1.6 mph 3.1 mph 97% 0 in 0 W/m2
04:37 45 °F 44.2 °F 30.4 in NNW 1.6 mph 4.5 mph 97% 0 in 0 W/m2
04:43 45 °F 44.2 °F 30.4 in North 1.6 mph 4.5 mph 97% 0 in 0 W/m2
04:48 45 °F 44.2 °F 30.4 in North 2.2 mph 5.4 mph 97% 0 in 0 W/m2
04:53 45.1 °F 44.2 °F 30.4 in NNW 3.1 mph 5.4 mph 97% 0 in 0 W/m2
04:58 45.1 °F 44.2 °F 30.4 in NW 3.1 mph 6 mph 97% 0 in 0 W/m2
05:03 45.3 °F 44.4 °F 30.4 in NNW 3.1 mph 6 mph 97% 0 in 0 W/m2
05:08 45.3 °F 44.4 °F 30.4 in NNW 4.5 mph 6.9 mph 97% 0 in 0 W/m2
05:13 45.3 °F 44.4 °F 30.4 in NNW 3.1 mph 7.6 mph 97% 0 in 0 W/m2
05:18 45.1 °F 44.2 °F 30.4 in NNW 2.2 mph 7.6 mph 97% 0 in 0 W/m2
05:23 45 °F 44.2 °F 30.4 in North 4.5 mph 6 mph 97% 0 in 0 W/m2
05:28 45 °F 44.2 °F 30.4 in NNW 5.4 mph 6.9 mph 97% 0 in 0 W/m2
05:33 45 °F 44.2 °F 30.4 in NNW 6.9 mph 9.8 mph 97% 0 in 0 W/m2
05:38 45 °F 44.2 °F 30.4 in NNW 4.5 mph 9.8 mph 97% 0 in 0 W/m2
05:43 45 °F 44.2 °F 30.4 in NNW 3.8 mph 9.8 mph 97% 0 in 0 W/m2
05:48 44.8 °F 44.1 °F 30.4 in NNW 2.2 mph 7.6 mph 97% 0 in 0 W/m2
05:53 44.8 °F 44.1 °F 30.4 in NNW 2.2 mph 6 mph 97% 0 in 0 W/m2
05:58 44.8 °F 44.1 °F 30.4 in NNW 5.4 mph 6 mph 97% 0 in 0 W/m2
06:03 44.8 °F 44.1 °F 30.4 in NNW 5.4 mph 6.9 mph 97% 0 in 0 W/m2
06:08 44.8 °F 44.1 °F 30.4 in NNW 4.5 mph 6.9 mph 97% 0 in 0 W/m2
06:13 44.8 °F 44.1 °F 30.4 in NNW 4.5 mph 6.9 mph 97% 0 in 0 W/m2
06:18 45 °F 44.2 °F 30.4 in NNW 3.1 mph 6.9 mph 97% 0 in 0 W/m2
06:21 45 °F 44.2 °F 30.4 in NNW 4.5 mph 6 mph 97% 0 in 0 W/m2
06:26 45 °F 44.2 °F 30.4 in NNW 4.5 mph 6 mph 97% 0 in 0 W/m2
06:31 45.1 °F 44.2 °F 30.4 in NW 3.8 mph 6 mph 97% 0 in 0 W/m2
06:36 45 °F 44.2 °F 30.4 in NW 4.5 mph 6.9 mph 97% 0 in 0 W/m2
06:41 44.8 °F 44.1 °F 30.4 in NW 3.8 mph 6.9 mph 97% 0 in 0 W/m2
06:46 44.8 °F 44.1 °F 30.4 in NW 3.1 mph 6.9 mph 97% 0 in 0 W/m2
06:51 44.8 °F 44.1 °F 30.4 in NNW 3.1 mph 6 mph 97% 0 in 0 W/m2
06:56 44.8 °F 44.1 °F 30.4 in NNW 3.1 mph 6 mph 97% 0 in 0 W/m2
07:01 44.8 °F 44.1 °F 30.4 in NNW 3.1 mph 6 mph 97% 0 in 0 W/m2
07:06 44.8 °F 44.1 °F 30.4 in NNW 2.2 mph 6 mph 97% 0 in 0 W/m2
07:11 44.6 °F 43.9 °F 30.4 in NNW 3.1 mph 5.4 mph 97% 0 in 0 W/m2
07:16 44.6 °F 43.9 °F 30.4 in NNW 3.8 mph 5.4 mph 97% 0 in 0 W/m2
07:21 44.6 °F 43.9 °F 30.4 in NNW 6 mph 8.3 mph 97% 0 in 0 W/m2
07:26 44.8 °F 44.1 °F 30.4 in NW 6 mph 8.3 mph 97% 0 in 0 W/m2
07:31 44.8 °F 44.1 °F 30.4 in NW 3.8 mph 8.3 mph 97% 0 in 0 W/m2
07:36 44.8 °F 44.1 °F 30.4 in NW 4.5 mph 7.6 mph 97% 0 in 1 W/m2
07:41 45 °F 44.2 °F 30.4 in NW 5.4 mph 7.6 mph 97% 0 in 3 W/m2
07:46 45 °F 44.2 °F 30.4 in NW 5.4 mph 7.6 mph 97% 0 in 4 W/m2
07:51 45.1 °F 44.2 °F 30.4 in NW 3.8 mph 7.6 mph 97% 0 in 6 W/m2
07:56 45.3 °F 44.4 °F 30.4 in NW 3.8 mph 7.6 mph 97% 0 in 11 W/m2
08:01 45.5 °F 44.8 °F 30.4 in NW 3.8 mph 6.9 mph 97% 0 in 18 W/m2
08:06 45.7 °F 45 °F 30.4 in NW 3.1 mph 6.9 mph 97% 0 in 24 W/m2
08:11 46 °F 45.1 °F 30.4 in NNW 3.1 mph 6.9 mph 97% 0 in 62 W/m2
08:16 46.8 °F 46.6 °F 30.4 in NNW 3.8 mph 6.9 mph 99% 0 in 40 W/m2
08:21 46.8 °F 46.6 °F 30.4 in NNW 3.8 mph 6 mph 99% 0 in 51 W/m2
08:26 46.8 °F 46.6 °F 30.4 in NNW 1.6 mph 6 mph 99% 0 in 59 W/m2
08:31 47.1 °F 46.9 °F 30.4 in NNW 4.5 mph 6.9 mph 99% 0 in 59 W/m2
08:36 47.1 °F 46.9 °F 30.4 in NNW 3.8 mph 6.9 mph 99% 0 in 81 W/m2
08:41 47.3 °F 46.9 °F 30.4 in NNW 3.8 mph 6.9 mph 99% 0 in 82 W/m2
08:46 47.7 °F 47.5 °F 30.4 in NNW 5.4 mph 7.6 mph 99% 0 in 108 W/m2
08:51 48 °F 47.8 °F 30.4 in NNW 3.8 mph 7.6 mph 99% 0 in 85 W/m2
08:56 47.8 °F 47.7 °F 30.4 in NNW 3.8 mph 7.6 mph 99% 0 in 95 W/m2
09:01 48 °F 47.8 °F 30.4 in NNW 4.5 mph 7.6 mph 99% 0 in 88 W/m2
09:06 48.2 °F 47.8 °F 30.4 in NW 3.8 mph 6.9 mph 99% 0 in 77 W/m2
09:11 48 °F 47.8 °F 30.4 in NNW 4.5 mph 9.2 mph 99% 0 in 135 W/m2
09:16 48.6 °F 48.4 °F 30.4 in NNW 3.1 mph 9.2 mph 99% 0 in 79 W/m2
09:21 49.1 °F 48.7 °F 30.4 in NNW 6.9 mph 9.2 mph 99% 0 in 218 W/m2
09:26 50.2 °F 49.6 °F 30.4 in NNW 3.8 mph 9.2 mph 98% 0 in 228 W/m2
09:31 51.3 °F 50.2 °F 30.4 in NW 6 mph 7.6 mph 96% 0 in 252 W/m2
09:36 51.6 °F 50 °F 30.4 in NW 6 mph 8.3 mph 94% 0 in 137 W/m2
09:41 51.3 °F 49.3 °F 30.4 in NW 3.1 mph 8.3 mph 93% 0 in 108 W/m2
09:46 51.1 °F 49.1 °F 30.5 in NNW 4.5 mph 7.6 mph 93% 0 in 99 W/m2
09:51 51.3 °F 49.3 °F 30.4 in NNW 3.1 mph 7.6 mph 93% 0 in 135 W/m2
09:56 52.3 °F 50.4 °F 30.4 in NNW 4.5 mph 6.9 mph 93% 0 in 107 W/m2
10:01 52.9 °F 50.5 °F 30.5 in NNW 4.5 mph 8.3 mph 92% 0 in 119 W/m2
10:06 52.7 °F 50.2 °F 30.5 in NNW 6.9 mph 8.3 mph 91% 0 in 185 W/m2
10:11 53.1 °F 50.2 °F 30.4 in NW 4.5 mph 8.3 mph 90% 0 in 133 W/m2
10:16 53.2 °F 50.4 °F 30.4 in NW 4.5 mph 8.3 mph 90% 0 in 134 W/m2
10:21 53.2 °F 50.2 °F 30.4 in NW 0.7 mph 8.3 mph 89% 0 in 125 W/m2
10:26 54 °F 50.5 °F 30.4 in NNW 2.2 mph 7.6 mph 88% 0 in 115 W/m2
10:31 54.7 °F 50.9 °F 30.4 in NNW 3.8 mph 6.9 mph 87% 0 in 97 W/m2
10:36 55.6 °F 51.4 °F 30.4 in NW 4.5 mph 6.9 mph 86% 0 in 109 W/m2
10:41 55.9 °F 51.4 °F 30.4 in NW 3.8 mph 5.4 mph 85% 0 in 116 W/m2
10:46 55.9 °F 51.4 °F 30.4 in NW 1.6 mph 5.4 mph 85% 0 in 125 W/m2
10:51 57 °F 52.5 °F 30.4 in NW 2.2 mph 5.4 mph 85% 0 in 112 W/m2
10:56 58.1 °F 53.1 °F 30.4 in NW 2.2 mph 4.5 mph 83% 0 in 136 W/m2
11:01 58.1 °F 52.3 °F 30.4 in NNW 3.8 mph 6.9 mph 81% 0 in 172 W/m2
11:06 58.6 °F 52.5 °F 30.4 in NNW 3.8 mph 7.6 mph 80% 0 in 188 W/m2
11:11 59.5 °F 53.1 °F 30.4 in NW 3.1 mph 7.6 mph 79% 0 in 176 W/m2
11:16 60.6 °F 53.4 °F 30.4 in NNW 4.5 mph 6.9 mph 77% 0 in 152 W/m2
11:21 61 °F 53.1 °F 30.4 in NNW 3.8 mph 6.9 mph 75% 0 in 108 W/m2
11:26 61.5 °F 52.9 °F 30.4 in NNW 3.1 mph 6 mph 73% 0 in 99 W/m2
11:31 62.4 °F 51.6 °F 30.4 in NNE 3.8 mph 6.9 mph 68% 0 in 104 W/m2
11:36 62.4 °F 50.9 °F 30.4 in NNE 3.1 mph 7.6 mph 66% 0 in 116 W/m2
11:41 62.6 °F 50.4 °F 30.4 in North 3.1 mph 9.8 mph 64% 0 in 89 W/m2
11:46 63.3 °F 51.4 °F 30.4 in NNE 4.5 mph 9.8 mph 65% 0 in 68 W/m2
11:51 62.6 °F 49.8 °F 30.4 in NNE 3.1 mph 7.6 mph 63% 0 in 65 W/m2
11:56 62.8 °F 50.4 °F 30.4 in NE 5.4 mph 8.3 mph 64% 0 in 77 W/m2
12:01 62.8 °F 50.4 °F 30.4 in NE 3.1 mph 8.3 mph 64% 0 in 91 W/m2
12:06 63.5 °F 50.7 °F 30.4 in NE 5.4 mph 9.8 mph 63% 0 in 80 W/m2
12:11 63.9 °F 51.1 °F 30.4 in NNE 3.8 mph 9.8 mph 63% 0 in 75 W/m2
12:16 64 °F 50.7 °F 30.4 in NNE 3.8 mph 8.3 mph 62% 0 in 64 W/m2
12:21 64 °F 50.7 °F 30.4 in NE 3.8 mph 9.8 mph 62% 0 in 60 W/m2
12:26 64 °F 50.7 °F 30.4 in NE 5.4 mph 10.7 mph 62% 0 in 58 W/m2
12:31 64.6 °F 51.3 °F 30.4 in NE 6.9 mph 10.7 mph 62% 0 in 58 W/m2
12:36 64.6 °F 51.3 °F 30.4 in NE 5.4 mph 9.2 mph 62% 0 in 58 W/m2
12:41 64.2 °F 50.9 °F 30.4 in NE 4.5 mph 9.8 mph 62% 0 in 60 W/m2
12:46 64.6 °F 50.4 °F 30.4 in NE 3.1 mph 9.8 mph 60% 0 in 62 W/m2
12:51 64.8 °F 50.5 °F 30.4 in NNE 4.5 mph 9.2 mph 60% 0 in 63 W/m2
12:56 65.1 °F 50.9 °F 30.4 in NNE 5.4 mph 8.3 mph 60% 0 in 66 W/m2
13:01 65.5 °F 51.3 °F 30.4 in NE 3.8 mph 8.3 mph 60% 0 in 68 W/m2
13:06 65.7 °F 51.1 °F 30.4 in NE 4.5 mph 11.4 mph 59% 0 in 71 W/m2
13:11 64.8 °F 50.2 °F 30.4 in NE 6.9 mph 11.4 mph 59% 0 in 65 W/m2
13:16 63.7 °F 50 °F 30.4 in NNE 3.1 mph 9.8 mph 61% 0 in 74 W/m2
13:21 65.1 °F 51.4 °F 30.4 in NNE 6 mph 9.8 mph 61% 0 in 62 W/m2
13:26 64.6 °F 50.4 °F 30.4 in NE 2.2 mph 8.3 mph 60% 0 in 80 W/m2
13:31 65.1 °F 50.9 °F 30.4 in NE 5.4 mph 8.3 mph 60% 0 in 86 W/m2
13:36 64.4 °F 50.2 °F 30.4 in NE 5.4 mph 10.7 mph 60% 0 in 89 W/m2
13:41 64.4 °F 50.2 °F 30.4 in NNE 4.5 mph 10.7 mph 60% 0 in 84 W/m2
13:46 64.9 °F 51.3 °F 30.4 in NNE 7.6 mph 10.7 mph 61% 0 in 94 W/m2
13:51 64.6 °F 50.4 °F 30.4 in North 4.5 mph 11.4 mph 60% 0 in 125 W/m2
13:56 64.4 °F 50.7 °F 30.4 in NNE 5.4 mph 11.4 mph 61% 0 in 194 W/m2
14:01 64.6 °F 50.7 °F 30.4 in NNE 3.1 mph 9.2 mph 61% 0 in 233 W/m2
14:06 64.2 °F 50.5 °F 30.4 in NE 3.8 mph 12.1 mph 61% 0 in 256 W/m2
14:11 63.9 °F 50.5 °F 30.4 in NE 6 mph 12.1 mph 62% 0 in 214 W/m2
14:16 63.3 °F 50.5 °F 30.4 in NE 3.8 mph 11.4 mph 63% 0 in 209 W/m2
14:21 63 °F 50.2 °F 30.4 in NE 7.6 mph 11.4 mph 63% 0 in 132 W/m2
14:26 62.8 °F 50.4 °F 30.4 in NE 3.8 mph 11.4 mph 64% 0 in 230 W/m2
14:31 63.7 °F 51.3 °F 30.4 in NE 3.8 mph 10.7 mph 64% 0 in 250 W/m2
14:36 63.5 °F 50.7 °F 30.4 in NE 3.8 mph 9.2 mph 63% 0 in 247 W/m2
14:41 63.7 °F 50.9 °F 30.4 in NE 3.1 mph 9.2 mph 63% 0 in 108 W/m2
14:46 63.1 °F 50.4 °F 30.4 in NE 3.8 mph 7.6 mph 63% 0 in 267 W/m2
14:51 64.2 °F 50.9 °F 30.4 in NE 6 mph 9.2 mph 62% 0 in 262 W/m2
14:56 64.8 °F 50.5 °F 30.4 in NE 4.5 mph 10.7 mph 60% 0 in 242 W/m2
15:02 64.8 °F 50.5 °F 30.4 in NE 4.5 mph 10.7 mph 60% 0 in 209 W/m2
15:07 64.9 °F 50.4 °F 30.4 in NE 3.8 mph 9.8 mph 59% 0 in 192 W/m2
15:12 64.6 °F 50.4 °F 30.4 in NE 6 mph 10.7 mph 60% 0 in 175 W/m2
15:17 64 °F 50.4 °F 30.4 in ENE 2.2 mph 10.7 mph 61% 0 in 146 W/m2
15:22 64.6 °F 49.8 °F 30.4 in NE 2.2 mph 10.7 mph 59% 0 in 135 W/m2
15:27 63.3 °F 49.6 °F 30.4 in NNE 4.5 mph 9.8 mph 61% 0 in 100 W/m2
15:32 62.4 °F 49.6 °F 30.4 in NE 5.4 mph 9.8 mph 63% 0 in 120 W/m2
15:37 62.8 °F 49.6 °F 30.4 in NE 3.8 mph 10.7 mph 62% 0 in 117 W/m2
15:42 63 °F 49.8 °F 30.4 in NE 3.8 mph 10.7 mph 62% 0 in 109 W/m2
15:47 63.3 °F 50.2 °F 30.4 in NE 7.6 mph 9.8 mph 62% 0 in 99 W/m2
15:53 62.1 °F 49.3 °F 30.4 in NE 3.1 mph 9.2 mph 63% 0 in 47 W/m2
15:58 60.6 °F 49.3 °F 30.4 in NNE 3.1 mph 9.2 mph 66% 0 in 51 W/m2
16:03 61.5 °F 50.2 °F 30.4 in NNE 3.1 mph 7.6 mph 66% 0 in 39 W/m2
16:08 60.8 °F 48.9 °F 30.4 in NNE 1.6 mph 6 mph 65% 0 in 31 W/m2
16:13 59.9 °F 48.9 °F 30.4 in North 3.1 mph 11.4 mph 67% 0 in 34 W/m2
16:18 59.9 °F 49.3 °F 30.4 in NNE 2.2 mph 11.4 mph 68% 0 in 26 W/m2
16:23 59.9 °F 49.6 °F 30.4 in NE 3.1 mph 8.3 mph 69% 0 in 23 W/m2
16:28 59.9 °F 49.3 °F 30.4 in NE 3.1 mph 6 mph 68% 0 in 21 W/m2
16:33 59.5 °F 48.9 °F 30.4 in NNE 1.6 mph 9.2 mph 68% 0 in 11 W/m2
16:38 58.6 °F 49.3 °F 30.4 in NNE 2.2 mph 9.2 mph 71% 0 in 8 W/m2
16:43 57.9 °F 48.9 °F 30.4 in NNE 3.1 mph 9.2 mph 72% 0 in 5 W/m2
16:48 57.6 °F 48.9 °F 30.4 in NNE 3.8 mph 6 mph 73% 0 in 4 W/m2
16:53 57.2 °F 48.9 °F 30.4 in North 3.1 mph 6.9 mph 74% 0 in 1 W/m2
16:58 56.8 °F 48.9 °F 30.4 in North 1.6 mph 6.9 mph 75% 0 in 0 W/m2
17:03 56.5 °F 48.9 °F 30.4 in North 0.7 mph 3.1 mph 76% 0 in 0 W/m2
17:08 55.9 °F 48.6 °F 30.4 in North 0.7 mph 3.1 mph 76% 0 in 0 W/m2
17:13 55.6 °F 48.6 °F 30.4 in North 2.2 mph 3.1 mph 77% 0 in 0 W/m2
17:18 55.4 °F 48.4 °F 30.4 in North 1.6 mph 3.1 mph 77% 0 in 0 W/m2
17:23 55.2 °F 48.7 °F 30.4 in NNW 1.6 mph 2.2 mph 79% 0 in 0 W/m2
17:28 55 °F 48.7 °F 30.4 in NW 1.6 mph 3.1 mph 79% 0 in 0 W/m2
17:33 54.7 °F 48.4 °F 30.4 in NW 0.7 mph 3.1 mph 79% 0 in 0 W/m2
17:51 53.2 °F 48.2 °F 30.4 in NW 2.2 mph 3.1 mph 83% 0 in 0 W/m2
17:56 53.1 °F 48.4 °F 30.4 in NW 0.7 mph 3.1 mph 84% 0 in 0 W/m2
18:01 52.9 °F 48.2 °F 30.4 in NNW 2.2 mph 3.1 mph 84% 0 in 0 W/m2
18:06 52.9 °F 48.2 °F 30.4 in North 0.7 mph 3.1 mph 84% 0 in 0 W/m2
18:11 52.7 °F 48 °F 30.4 in North 0.7 mph 3.1 mph 84% 0 in 0 W/m2
18:16 52.7 °F 48 °F 30.4 in North 0.7 mph 3.1 mph 84% 0 in 0 W/m2
18:20 52.3 °F 47.7 °F 30.4 in Calm   2.2 mph 84% 0 in 0 W/m2
18:26 52 °F 47.3 °F 30.4 in Calm   1.6 mph 84% 0 in 0 W/m2
18:31 51.8 °F 47.1 °F 30.4 in NW 0.7 mph 1.6 mph 84% 0 in 0 W/m2
18:36 51.6 °F 47.7 °F 30.4 in NW 0.7 mph 1.6 mph 86% 0 in 0 W/m2
18:41 51.6 °F 47.7 °F 30.4 in WNW 1.6 mph 2.2 mph 86% 0 in 0 W/m2
18:46 51.4 °F 47.5 °F 30.4 in WNW 0.7 mph 2.2 mph 86% 0 in 0 W/m2
18:51 51.3 °F 47.5 °F 30.4 in WNW 0.7 mph 3.1 mph 87% 0 in 0 W/m2
18:56 51.3 °F 47.5 °F 30.4 in NW 0.7 mph 3.1 mph 87% 0 in 0 W/m2
19:01 51.1 °F 47.5 °F 30.4 in Calm   2.2 mph 87% 0 in 0 W/m2
19:06 50.5 °F 46.8 °F 30.4 in Calm   2.2 mph 87% 0 in 0 W/m2
19:10 50.2 °F 46.6 °F 30.4 in NW 0.7 mph 1.6 mph 87% 0 in 0 W/m2
19:16 50.2 °F 46.6 °F 30.4 in NW 0.7 mph 2.2 mph 87% 0 in 0 W/m2
19:21 50.4 °F 46.9 °F 30.4 in Calm   2.2 mph 88% 0 in 0 W/m2
19:26 50.2 °F 47.1 °F 30.4 in Calm   2.2 mph 89% 0 in 0 W/m2
19:31 50 °F 46.9 °F 30.4 in Calm   1.6 mph 89% 0 in 0 W/m2
19:36 49.6 °F 46.8 °F 30.4 in Calm   0.7 mph 90% 0 in 0 W/m2
19:41 49.6 °F 47.1 °F 30.4 in North 1.6 mph 2.2 mph 91% 0 in 0 W/m2
19:46 49.5 °F 46.9 °F 30.4 in North 0.7 mph 2.2 mph 91% 0 in 0 W/m2
19:51 49.3 °F 46.8 °F 30.4 in North 0.7 mph 2.2 mph 91% 0 in 0 W/m2
19:56 49.3 °F 47.1 °F 30.4 in NNW 2.2 mph 3.1 mph 92% 0 in 0 W/m2
20:01 49.6 °F 47.7 °F 30.4 in NNW 1.6 mph 3.8 mph 93% 0 in 0 W/m2
20:06 49.8 °F 47.8 °F 30.4 in NNW 3.1 mph 4.5 mph 93% 0 in 0 W/m2
20:11 50 °F 47.8 °F 30.4 in NNW 2.2 mph 4.5 mph 92% 0 in 0 W/m2
20:16 50 °F 47.5 °F 30.4 in NNW 2.2 mph 4.5 mph 91% 0 in 0 W/m2
20:21 50.2 °F 47.7 °F 30.4 in North 3.1 mph 4.5 mph 91% 0 in 0 W/m2
20:26 50.2 °F 47.7 °F 30.4 in North 2.2 mph 5.4 mph 91% 0 in 0 W/m2
20:31 50.2 °F 47.7 °F 30.4 in NNW 2.2 mph 5.4 mph 91% 0 in 0 W/m2
20:36 50 °F 47.5 °F 30.4 in NNW 3.1 mph 5.4 mph 91% 0 in 0 W/m2
20:41 50 °F 47.5 °F 30.4 in NNW 3.1 mph 5.4 mph 91% 0 in 0 W/m2
20:47 50 °F 47.5 °F 30.4 in North 3.1 mph 5.4 mph 91% 0 in 0 W/m2
20:52 50 °F 47.5 °F 30.4 in North 3.1 mph 5.4 mph 91% 0 in 0 W/m2
20:56 50 °F 47.5 °F 30.4 in North 3.1 mph 5.4 mph 91% 0 in 0 W/m2
21:02 50 °F 47.5 °F 30.4 in North 3.8 mph 7.6 mph 91% 0 in 0 W/m2
21:07 50 °F 47.1 °F 30.4 in North 3.8 mph 7.6 mph 90% 0 in 0 W/m2
21:12 50.2 °F 47.5 °F 30.4 in North 3.1 mph 7.6 mph 90% 0 in 0 W/m2
21:17 50.4 °F 47.5 °F 30.4 in NNW 3.8 mph 7.6 mph 90% 0 in 0 W/m2
21:22 50.2 °F 47.1 °F 30.4 in NNW 3.8 mph 7.6 mph 89% 0 in 0 W/m2
21:27 49.8 °F 47.3 °F 30.4 in NNW 3.1 mph 6 mph 91% 0 in 0 W/m2
21:32 49.6 °F 47.1 °F 30.4 in NNW 5.4 mph 6.9 mph 91% 0 in 0 W/m2
21:36 49.6 °F 47.1 °F 30.4 in NW 3.1 mph 6.9 mph 91% 0 in 0 W/m2
21:41 49.3 °F 46.8 °F 30.4 in NNW 3.1 mph 6.9 mph 91% 0 in 0 W/m2
21:47 49.3 °F 47.1 °F 30.4 in NW 3.1 mph 6 mph 92% 0 in 0 W/m2
21:52 48.9 °F 46.8 °F 30.4 in NNW 3.1 mph 6 mph 92% 0 in 0 W/m2
21:57 48.6 °F 46.2 °F 30.4 in North 2.2 mph 6 mph 92% 0 in 0 W/m2
22:01 48.4 °F 46.6 °F 30.4 in North 3.1 mph 4.5 mph 93% 0 in 0 W/m2
22:07 48.2 °F 46.2 °F 30.4 in North 2.2 mph 5.4 mph 93% 0 in 0 W/m2
22:12 48 °F 46.8 °F 30.4 in NNW 2.2 mph 5.4 mph 95% 0 in 0 W/m2
22:16 47.8 °F 46.6 °F 30.4 in NNW 3.1 mph 4.5 mph 95% 0 in 0 W/m2
22:22 48 °F 46.8 °F 30.4 in NW 3.1 mph 5.4 mph 95% 0 in 0 W/m2
22:26 48.2 °F 46.6 °F 30.4 in NW 3.8 mph 5.4 mph 94% 0 in 0 W/m2
22:31 48.2 °F 46.6 °F 30.4 in NW 3.1 mph 5.4 mph 94% 0 in 0 W/m2
22:37 48.4 °F 46.8 °F 30.4 in NW 2.2 mph 5.4 mph 94% 0 in 0 W/m2
22:42 48.4 °F 46.8 °F 30.4 in NW 3.8 mph 5.4 mph 94% 0 in 0 W/m2
22:46 48.4 °F 46.8 °F 30.4 in NW 4.5 mph 6 mph 94% 0 in 0 W/m2
22:51 48.6 °F 46.9 °F 30.4 in NNW 3.1 mph 6 mph 94% 0 in 0 W/m2
22:57 48.6 °F 46.9 °F 30.4 in NNW 2.2 mph 6 mph 94% 0 in 0 W/m2
23:02 48.4 °F 46.8 °F 30.4 in NNW 2.2 mph 4.5 mph 94% 0 in 0 W/m2
23:07 48.4 °F 46.8 °F 30.4 in NNW 3.1 mph 4.5 mph 94% 0 in 0 W/m2
23:11 48.4 °F 46.8 °F 30.4 in NNW 2.2 mph 4.5 mph 94% 0 in 0 W/m2
23:17 48.4 °F 46.8 °F 30.4 in NNW 3.1 mph 4.5 mph 94% 0 in 0 W/m2
23:22 48.4 °F 46.8 °F 30.4 in NNW 3.8 mph 6 mph 94% 0 in 0 W/m2
23:26 48.6 °F 46.9 °F 30.4 in NNW 3.1 mph 6.9 mph 94% 0 in 0 W/m2
23:32 48.6 °F 46.9 °F 30.4 in NNW 3.1 mph 6.9 mph 94% 0 in 0 W/m2
23:36 48.6 °F 46.9 °F 30.4 in NNW 2.2 mph 5.4 mph 94% 0 in 0 W/m2
23:41 48.9 °F 47.3 °F 30.4 in NNW 3.1 mph 5.4 mph 94% 0 in 0 W/m2
23:46 49.3 °F 47.7 °F 30.4 in NNW 4.5 mph 6.9 mph 94% 0 in 0 W/m2
23:52 49.8 °F 47.8 °F 30.4 in NNW 3.1 mph 7.6 mph 93% 0 in 0 W/m2
23:56 50 °F 47.5 °F 30.4 in NNW 3.8 mph 7.6 mph 91% 0 in 0 W/m2
Northern Hawkes Bay. New Zealand Historic Data
Compliments of Weather Underground - 2 mb